Terminal Aerodrome Forecast
Issued by NWS Twin Cities, MN

Home | Current Version | Previous Version | Graphics & Text | Print | Product List | Glossary On
Versions: 1 2 3 4 5 6 7 8 9 10 11 12 13 14 15 16 17 18 19 20 21 22 23 24 25 26 27 28 29 30 31 32 33 34 35
000
FTUS43 KMPX 181600 AAC
TAFMSP
TAF AMD
KMSP 181612Z 1816/1918 13004KT P6SM -SN BKN018 OVC025
      TEMPO 1816/1818 2SM -SN
     FM190000 16004KT P6SM BKN025 BKN090
     FM190600 16003KT P6SM FEW025 BKN080
     FM191200 16005KT P6SM BKN040=

USA.gov is the U.S. government's official web portal to all federal, state and local government web resources and services.